Time;durP1;ratioP1;P1;durP2;ratioP2;P2;SDS_P1;SDS_P2;PMS_P1;PMS_P2;Temp;Humidity;BMP_temperature;BMP_pressure;BME280_temperature;BME280_humidity;BME280_pressure;Samples;Min_cycle;Max_cycle;Signal;HPM_P1;HPM_P2
2022/10/13 00:00:33;;;;;;;;;;;12.20;99.90;;;;;;5100740;28;19936;-78
2022/10/13 00:03:00;;;;;;;;;;;12.20;99.90;;;;;;5083274;28;19908;-78
2022/10/13 00:05:26;;;;;;;;;;;12.20;99.90;;;;;;5082258;28;19923;-78
2022/10/13 00:07:51;;;;;;;;;;;12.30;99.90;;;;;;5099940;28;19916;-78
2022/10/13 00:10:17;;;;;;;;;;;12.30;99.90;;;;;;5100011;28;19908;-78
2022/10/13 00:12:42;;;;;;;;;;;12.30;99.90;;;;;;5082981;28;19995;-78
2022/10/13 00:15:08;;;;;;;;;;;12.20;99.90;;;;;;5081469;28;19912;-78
2022/10/13 00:17:35;;;;;;;;;;;12.30;99.90;;;;;;5101304;28;19912;-78
2022/10/13 00:20:01;;;;;;;;;;;12.20;99.90;;;;;;5082426;28;19916;-78
2022/10/13 00:22:26;;;;;;;;;;;12.20;99.90;;;;;;5101246;28;19909;-78
2022/10/13 00:24:52;;;;;;;;;;;12.10;99.90;;;;;;5082549;28;19915;-78
2022/10/13 00:27:18;;;;;;;;;;;12.10;99.90;;;;;;5100685;28;19919;-78
2022/10/13 00:29:44;;;;;;;;;;;12.10;99.90;;;;;;5100949;28;19912;-78
2022/10/13 00:32:09;;;;;;;;;;;12.20;99.90;;;;;;5082612;28;19915;-78
2022/10/13 00:34:38;;;;;;;;;;;12.20;99.90;;;;;;5082282;28;19914;-77
2022/10/13 00:37:04;;;;;;;;;;;12.20;99.90;;;;;;5082200;28;19909;-78
2022/10/13 00:39:29;;;;;;;;;;;12.10;99.90;;;;;;5100710;28;19912;-78
2022/10/13 00:41:58;;;;;;;;;;;12.10;99.90;;;;;;5100598;28;19934;-78
2022/10/13 00:44:43;;;;;;;;;;;12.20;99.90;;;;;;5081757;28;19912;-78
2022/10/13 00:47:08;;;;;;;;;;;12.20;99.90;;;;;;5100166;28;19915;-78
2022/10/13 00:49:34;;;;;;;;;;;12.20;99.90;;;;;;5100193;28;19912;-78
2022/10/13 00:52:00;;;;;;;;;;;12.20;99.90;;;;;;5081917;28;19915;-78
2022/10/13 00:54:25;;;;;;;;;;;12.20;99.90;;;;;;5099898;28;19920;-78
2022/10/13 00:56:51;;;;;;;;;;;12.20;99.90;;;;;;5100556;28;20361;-78
2022/10/13 00:59:22;;;;;;;;;;;12.20;99.90;;;;;;5099661;28;19920;-78
2022/10/13 01:01:51;;;;;;;;;;;12.20;99.90;;;;;;5098972;28;19912;-78
2022/10/13 01:04:18;;;;;;;;;;;12.20;99.90;;;;;;5081193;28;19943;-78
2022/10/13 01:06:44;;;;;;;;;;;12.30;99.90;;;;;;5098597;28;19967;-78
2022/10/13 01:09:09;;;;;;;;;;;12.20;99.90;;;;;;5099171;28;19908;-78
2022/10/13 01:11:50;;;;;;;;;;;12.20;99.90;;;;;;5099407;28;20395;-78
2022/10/13 01:14:32;;;;;;;;;;;12.30;99.90;;;;;;5080424;28;20296;-78
2022/10/13 01:17:00;;;;;;;;;;;12.30;99.90;;;;;;5080866;28;19917;-78
2022/10/13 01:19:37;;;;;;;;;;;12.30;99.90;;;;;;5098664;28;19916;-78
2022/10/13 01:22:12;;;;;;;;;;;12.30;99.90;;;;;;5099199;28;19915;-78
2022/10/13 01:24:44;;;;;;;;;;;12.30;99.90;;;;;;5080135;28;19944;-78
2022/10/13 01:27:28;;;;;;;;;;;12.30;99.90;;;;;;5099405;28;20373;-78
2022/10/13 01:29:53;;;;;;;;;;;12.30;99.90;;;;;;5080485;28;19995;-80
2022/10/13 01:32:24;;;;;;;;;;;12.20;99.90;;;;;;5099147;28;20406;-80
2022/10/13 01:34:58;;;;;;;;;;;12.30;99.90;;;;;;5105953;28;19963;-79
2022/10/13 01:37:32;;;;;;;;;;;12.30;99.90;;;;;;5106959;28;19908;-80
2022/10/13 01:40:05;;;;;;;;;;;12.20;99.90;;;;;;5106982;28;19912;-80
2022/10/13 01:42:48;;;;;;;;;;;12.30;99.90;;;;;;5106625;28;19912;-79
2022/10/13 01:45:16;;;;;;;;;;;12.20;99.90;;;;;;5088194;28;20502;-80
2022/10/13 01:47:42;;;;;;;;;;;12.20;99.90;;;;;;5106527;28;19916;-79
2022/10/13 01:50:08;;;;;;;;;;;12.20;99.90;;;;;;5106258;28;19908;-80
2022/10/13 01:52:35;;;;;;;;;;;12.10;99.90;;;;;;5106067;28;19948;-80
2022/10/13 01:55:09;;;;;;;;;;;12.20;99.90;;;;;;5089043;28;19930;-80
2022/10/13 01:57:36;;;;;;;;;;;12.10;99.90;;;;;;5105497;28;19973;-80
2022/10/13 02:00:21;;;;;;;;;;;12.10;99.90;;;;;;5089163;28;19912;-80
2022/10/13 02:03:00;;;;;;;;;;;12.20;99.90;;;;;;5105888;28;20007;-80
2022/10/13 02:05:26;;;;;;;;;;;12.10;99.90;;;;;;5106534;28;19991;-79
2022/10/13 02:08:04;;;;;;;;;;;12.20;99.90;;;;;;5088364;28;19923;-80
2022/10/13 02:10:38;;;;;;;;;;;12.20;99.90;;;;;;5106569;28;19908;-79
2022/10/13 02:13:06;;;;;;;;;;;12.20;99.90;;;;;;5104940;28;19916;-80
2022/10/13 02:15:34;;;;;;;;;;;12.20;99.90;;;;;;5106555;28;20396;-79
2022/10/13 02:18:00;;;;;;;;;;;12.20;99.90;;;;;;5089129;28;20094;-79
2022/10/13 02:20:26;;;;;;;;;;;12.30;99.90;;;;;;5104893;28;19912;-80
2022/10/13 02:22:55;;;;;;;;;;;12.30;99.90;;;;;;5106059;28;19934;-80
2022/10/13 02:25:20;;;;;;;;;;;12.40;99.90;;;;;;5087588;28;19976;-80
2022/10/13 02:27:46;;;;;;;;;;;12.40;99.90;;;;;;5105464;28;19908;-80
2022/10/13 02:30:19;;;;;;;;;;;12.40;99.90;;;;;;5082772;28;19908;-78
2022/10/13 02:32:44;;;;;;;;;;;12.40;99.90;;;;;;5079357;28;19912;-78
2022/10/13 02:35:10;;;;;;;;;;;12.40;99.90;;;;;;5077885;28;19909;-78
2022/10/13 02:37:35;;;;;;;;;;;12.40;99.90;;;;;;5096265;28;19912;-78
2022/10/13 02:40:01;;;;;;;;;;;12.40;99.90;;;;;;5078117;28;19919;-79
2022/10/13 02:42:26;;;;;;;;;;;12.40;99.90;;;;;;5096497;28;19908;-78
2022/10/13 02:44:52;;;;;;;;;;;12.40;99.90;;;;;;5078162;28;20360;-78
2022/10/13 02:47:18;;;;;;;;;;;12.40;99.90;;;;;;5097024;28;19961;-78
2022/10/13 02:49:43;;;;;;;;;;;12.30;99.90;;;;;;5096587;28;19998;-78
2022/10/13 02:52:08;;;;;;;;;;;12.30;99.90;;;;;;5096942;28;19915;-78
2022/10/13 02:54:34;;;;;;;;;;;12.30;99.90;;;;;;5096014;28;19919;-78
2022/10/13 12:15:32;;;;;;;;;;;17.40;99.90;;;;;;5152224;22;19929;-79
2022/10/13 12:17:58;;;;;;;;;;;17.40;99.90;;;;;;5042946;28;19917;-80
2022/10/13 12:20:28;;;;;;;;;;;17.50;99.90;;;;;;5035647;28;19955;-80
2022/10/13 12:22:54;;;;;;;;;;;17.50;99.90;;;;;;5039511;28;19909;-79
2022/10/13 12:25:21;;;;;;;;;;;17.70;99.90;;;;;;5057224;28;19919;-79
2022/10/13 12:27:47;;;;;;;;;;;17.80;99.90;;;;;;5058392;28;19967;-78
2022/10/13 12:30:27;;;;;;;;;;;17.70;99.90;;;;;;5038999;28;20325;-79
2022/10/13 12:32:54;;;;;;;;;;;17.50;99.90;;;;;;5029162;28;19959;-78
2022/10/13 12:35:22;;;;;;;;;;;17.60;99.90;;;;;;5035061;28;19955;-80
2022/10/13 12:37:48;;;;;;;;;;;17.70;99.90;;;;;;5057707;28;20247;-80
2022/10/13 12:40:17;;;;;;;;;;;17.70;99.90;;;;;;5040718;28;19920;-80
2022/10/13 12:42:43;;;;;;;;;;;17.70;99.90;;;;;;5057716;28;19916;-79
2022/10/13 12:45:16;;;;;;;;;;;17.70;99.90;;;;;;5059238;28;19909;-80
2022/10/13 12:47:44;;;;;;;;;;;17.70;99.90;;;;;;5058483;28;19909;-80
2022/10/13 12:50:19;;;;;;;;;;;17.80;99.90;;;;;;5041154;28;19912;-80
2022/10/13 12:52:44;;;;;;;;;;;17.80;99.90;;;;;;5039323;28;19916;-79
2022/10/13 12:55:15;;;;;;;;;;;17.80;99.90;;;;;;5057156;28;20289;-80
2022/10/13 12:57:43;;;;;;;;;;;17.80;99.90;;;;;;5037834;28;19948;-79
2022/10/13 13:00:18;;;;;;;;;;;17.80;99.90;;;;;;5057290;28;19988;-79
2022/10/13 13:02:53;;;;;;;;;;;17.80;99.90;;;;;;5040127;28;19978;-80
2022/10/13 13:05:32;;;;;;;;;;;17.80;99.90;;;;;;5039650;28;19962;-80
2022/10/13 13:07:58;;;;;;;;;;;17.80;99.90;;;;;;5059910;28;19954;-79
2022/10/13 13:10:24;;;;;;;;;;;17.80;99.90;;;;;;5039826;28;19916;-80
2022/10/13 13:12:51;;;;;;;;;;;17.90;99.90;;;;;;5058697;28;19999;-79
2022/10/13 13:15:29;;;;;;;;;;;17.90;99.90;;;;;;5041703;28;20365;-79
2022/10/13 13:18:14;;;;;;;;;;;18.00;99.90;;;;;;5040726;28;19916;-80
2022/10/13 13:20:40;;;;;;;;;;;18.10;99.90;;;;;;5060063;28;19919;-80
2022/10/13 13:23:05;;;;;;;;;;;18.00;99.90;;;;;;5058807;28;19984;-78
2022/10/13 13:25:31;;;;;;;;;;;18.00;99.90;;;;;;5042526;28;19982;-79
2022/10/13 13:27:56;;;;;;;;;;;18.00;99.90;;;;;;5072333;28;20012;-79
2022/10/13 13:30:22;;;;;;;;;;;18.00;99.90;;;;;;5044803;28;20453;-79
2022/10/13 13:32:48;;;;;;;;;;;18.00;99.90;;;;;;5061683;28;19956;-79
2022/10/13 13:35:14;;;;;;;;;;;18.00;99.90;;;;;;5043299;28;19915;-80
2022/10/13 13:37:47;;;;;;;;;;;17.90;99.90;;;;;;5061648;28;19920;-80
2022/10/13 13:40:14;;;;;;;;;;;17.90;99.90;;;;;;5061151;28;19955;-79
2022/10/13 13:42:40;;;;;;;;;;;17.80;99.90;;;;;;5063467;28;19909;-80
2022/10/13 13:45:05;;;;;;;;;;;17.80;99.90;;;;;;5058908;28;20496;-78
2022/10/13 13:47:31;;;;;;;;;;;17.80;99.90;;;;;;5058068;28;19909;-79
2022/10/13 13:49:57;;;;;;;;;;;17.70;99.90;;;;;;5056071;28;19909;-79
2022/10/13 13:52:23;;;;;;;;;;;17.70;99.90;;;;;;5058416;28;20301;-77
2022/10/13 13:54:49;;;;;;;;;;;17.70;99.90;;;;;;5056746;28;19954;-79
2022/10/13 13:57:15;;;;;;;;;;;17.60;99.90;;;;;;5039078;28;19909;-77
2022/10/13 13:59:41;;;;;;;;;;;17.50;99.90;;;;;;5059237;28;19958;-78
2022/10/13 14:02:10;;;;;;;;;;;17.50;99.90;;;;;;5060259;28;20199;-77
2022/10/13 14:04:36;;;;;;;;;;;17.40;99.90;;;;;;5060083;28;19916;-78
2022/10/13 14:07:01;;;;;;;;;;;17.40;99.90;;;;;;5058703;28;19909;-77
2022/10/13 14:09:27;;;;;;;;;;;17.40;99.90;;;;;;5060250;28;20412;-77
2022/10/13 14:11:52;;;;;;;;;;;17.40;99.90;;;;;;5060000;28;19995;-78
2022/10/13 14:14:18;;;;;;;;;;;17.40;99.90;;;;;;5041582;28;19936;-77
2022/10/13 14:16:43;;;;;;;;;;;17.40;99.90;;;;;;5043110;28;19939;-78
2022/10/13 14:19:09;;;;;;;;;;;17.20;99.90;;;;;;5035294;28;19916;-77
2022/10/13 14:21:35;;;;;;;;;;;17.10;99.90;;;;;;5040939;28;19916;-80
2022/10/13 14:24:00;;;;;;;;;;;17.10;99.90;;;;;;5051768;28;19980;-80
2022/10/13 14:26:26;;;;;;;;;;;17.00;99.90;;;;;;5059583;28;19909;-79
2022/10/13 14:28:51;;;;;;;;;;;17.00;99.90;;;;;;5042239;28;19915;-79
2022/10/13 14:31:17;;;;;;;;;;;17.00;99.90;;;;;;5059858;28;20389;-80
2022/10/13 14:33:42;;;;;;;;;;;17.00;99.90;;;;;;5059644;28;20344;-79
2022/10/13 14:36:08;;;;;;;;;;;17.00;99.90;;;;;;5059569;28;19908;-80
2022/10/13 14:38:34;;;;;;;;;;;17.00;99.90;;;;;;5059392;28;19909;-79
2022/10/13 14:41:00;;;;;;;;;;;17.00;99.90;;;;;;5058821;28;19921;-79
2022/10/13 14:43:26;;;;;;;;;;;17.00;99.90;;;;;;5058583;28;19916;-80
2022/10/13 14:45:52;;;;;;;;;;;17.00;99.90;;;;;;5054484;28;20331;-78
2022/10/13 14:48:17;;;;;;;;;;;17.00;99.90;;;;;;5035417;28;19994;-80
2022/10/13 14:50:43;;;;;;;;;;;17.00;99.90;;;;;;5053663;28;20055;-79
2022/10/13 14:53:14;;;;;;;;;;;17.00;99.90;;;;;;5053261;28;19913;-80
2022/10/13 14:55:43;;;;;;;;;;;17.00;99.90;;;;;;5053426;28;19912;-79
2022/10/13 14:58:08;;;;;;;;;;;17.00;99.90;;;;;;5036200;28;19916;-77
2022/10/13 15:00:34;;;;;;;;;;;17.00;99.90;;;;;;5036141;28;19913;-78
2022/10/13 15:03:00;;;;;;;;;;;17.10;99.90;;;;;;5053588;28;19909;-81
2022/10/13 15:05:25;;;;;;;;;;;17.10;99.90;;;;;;5053353;28;20397;-80
2022/10/13 15:07:50;;;;;;;;;;;17.00;99.90;;;;;;5053413;28;19913;-80
2022/10/13 15:10:16;;;;;;;;;;;16.90;99.90;;;;;;5035094;28;19916;-79
2022/10/13 15:12:41;;;;;;;;;;;16.90;99.90;;;;;;5053115;28;19970;-80
2022/10/13 15:15:07;;;;;;;;;;;16.90;99.90;;;;;;5035959;28;20286;-79
2022/10/13 15:17:33;;;;;;;;;;;16.90;99.90;;;;;;5055155;28;19970;-79
2022/10/13 15:19:58;;;;;;;;;;;16.90;99.90;;;;;;5055074;28;20106;-78
2022/10/13 15:22:24;;;;;;;;;;;16.90;99.90;;;;;;5040831;28;19916;-79
2022/10/13 15:24:49;;;;;;;;;;;16.80;99.90;;;;;;5040218;28;20008;-79
2022/10/13 15:27:15;;;;;;;;;;;16.80;99.90;;;;;;5056141;28;19909;-79
2022/10/13 15:29:40;;;;;;;;;;;16.70;99.90;;;;;;5022427;28;19918;-79
2022/10/13 15:32:07;;;;;;;;;;;16.60;99.90;;;;;;5038119;28;19916;-80
2022/10/13 15:34:32;;;;;;;;;;;16.50;99.90;;;;;;5038291;28;19996;-80
2022/10/13 15:36:58;;;;;;;;;;;16.40;99.90;;;;;;5039803;28;19996;-78
2022/10/13 15:39:23;;;;;;;;;;;16.40;99.90;;;;;;5038470;28;20004;-79
2022/10/13 15:41:49;;;;;;;;;;;16.40;99.90;;;;;;5021448;28;20305;-79
2022/10/13 15:44:15;;;;;;;;;;;16.30;99.90;;;;;;5040697;28;19968;-78
2022/10/13 15:46:42;;;;;;;;;;;16.30;99.90;;;;;;5041476;28;19940;-78
2022/10/13 15:49:08;;;;;;;;;;;16.30;99.90;;;;;;5023400;28;19913;-77
2022/10/13 15:51:33;;;;;;;;;;;16.30;99.90;;;;;;5041066;28;19963;-78
2022/10/13 15:53:59;;;;;;;;;;;16.30;99.90;;;;;;5040642;28;19920;-78
2022/10/13 15:56:24;;;;;;;;;;;16.20;99.90;;;;;;5022252;28;19917;-77
2022/10/13 15:58:50;;;;;;;;;;;16.20;99.90;;;;;;5038049;28;19909;-78
2022/10/13 16:01:15;;;;;;;;;;;16.20;99.90;;;;;;5019990;28;19912;-78
2022/10/13 16:03:41;;;;;;;;;;;16.20;99.90;;;;;;5037703;28;19909;-78
2022/10/13 16:06:07;;;;;;;;;;;16.10;99.90;;;;;;5037535;28;20018;-77
2022/10/13 16:08:39;;;;;;;;;;;16.10;99.90;;;;;;5036594;28;19960;-77
2022/10/13 16:11:09;;;;;;;;;;;16.20;99.90;;;;;;5019479;28;19909;-78
2022/10/13 16:13:35;;;;;;;;;;;16.20;99.90;;;;;;5020010;28;20008;-78
2022/10/13 16:16:00;;;;;;;;;;;16.10;99.90;;;;;;5039211;28;19949;-78
2022/10/13 16:18:29;;;;;;;;;;;16.00;99.90;;;;;;5039796;28;19921;-77
2022/10/13 16:20:55;;;;;;;;;;;16.00;99.90;;;;;;5039942;28;19935;-78
2022/10/13 16:23:20;;;;;;;;;;;16.00;99.90;;;;;;5039709;28;19909;-78
2022/10/13 16:25:46;;;;;;;;;;;16.00;99.90;;;;;;5039100;28;19909;-78
2022/10/13 16:28:13;;;;;;;;;;;16.00;99.90;;;;;;5039788;28;20004;-78
2022/10/13 16:30:40;;;;;;;;;;;16.00;99.90;;;;;;5039799;28;20278;-78
2022/10/13 16:33:05;;;;;;;;;;;15.90;99.90;;;;;;5037633;28;19916;-78
2022/10/13 16:35:33;;;;;;;;;;;15.90;99.90;;;;;;5021206;28;19908;-78
2022/10/13 16:37:59;;;;;;;;;;;15.90;99.90;;;;;;5038708;28;19952;-77
2022/10/13 16:40:24;;;;;;;;;;;15.90;99.90;;;;;;5038574;28;19917;-78
2022/10/13 16:42:50;;;;;;;;;;;15.90;99.90;;;;;;5038317;28;20033;-80
2022/10/13 16:45:15;;;;;;;;;;;15.90;99.90;;;;;;5039121;28;19909;-83
2022/10/13 16:47:41;;;;;;;;;;;15.90;99.90;;;;;;5020508;28;19959;-82
2022/10/13 16:50:08;;;;;;;;;;;16.00;99.90;;;;;;5037963;28;19909;-83
2022/10/13 16:52:34;;;;;;;;;;;16.00;99.90;;;;;;5021608;28;19947;-86
2022/10/13 16:55:00;;;;;;;;;;;15.90;99.90;;;;;;5022736;28;19917;-84
2022/10/13 16:57:27;;;;;;;;;;;16.00;99.90;;;;;;5023186;28;19909;-84
2022/10/13 16:59:53;;;;;;;;;;;16.00;99.90;;;;;;5043751;28;19913;-85
2022/10/13 17:02:18;;;;;;;;;;;16.00;99.90;;;;;;5017313;28;20393;-78
2022/10/13 17:04:44;;;;;;;;;;;16.00;99.90;;;;;;5034035;28;19967;-78
2022/10/13 17:07:09;;;;;;;;;;;16.00;99.90;;;;;;5033976;28;20333;-78
2022/10/13 17:09:35;;;;;;;;;;;16.10;99.90;;;;;;5035331;28;19916;-79
2022/10/13 17:12:01;;;;;;;;;;;16.00;99.90;;;;;;5033757;28;19913;-78
2022/10/13 17:14:26;;;;;;;;;;;16.00;99.90;;;;;;5035740;28;19909;-80
2022/10/13 17:16:51;;;;;;;;;;;16.10;99.90;;;;;;5036195;28;20043;-79
2022/10/13 17:19:17;;;;;;;;;;;16.10;99.90;;;;;;5035683;28;19917;-78
2022/10/13 17:21:43;;;;;;;;;;;16.10;99.90;;;;;;5036320;28;20018;-78
2022/10/13 17:24:08;;;;;;;;;;;16.10;99.90;;;;;;5035631;28;19910;-79
2022/10/13 17:26:34;;;;;;;;;;;16.10;99.90;;;;;;5017398;28;19913;-79
2022/10/13 17:28:59;;;;;;;;;;;16.00;99.90;;;;;;5035333;28;19995;-79
2022/10/13 17:31:24;;;;;;;;;;;15.80;99.90;;;;;;5036808;28;19916;-78
2022/10/13 17:33:50;;;;;;;;;;;15.80;99.90;;;;;;5037079;28;19996;-79
2022/10/13 17:36:18;;;;;;;;;;;15.70;99.90;;;;;;5035892;28;19932;-78
2022/10/13 17:38:43;;;;;;;;;;;15.70;99.90;;;;;;5035629;28;19932;-78
2022/10/13 17:41:09;;;;;;;;;;;15.60;99.90;;;;;;5034096;28;19920;-79
2022/10/13 17:43:36;;;;;;;;;;;15.60;99.90;;;;;;5035044;28;19992;-80
2022/10/13 17:46:12;;;;;;;;;;;15.60;99.90;;;;;;5035838;28;19917;-79
2022/10/13 17:48:38;;;;;;;;;;;15.60;99.90;;;;;;5034665;28;20424;-80
2022/10/13 17:51:08;;;;;;;;;;;15.50;99.90;;;;;;5017405;28;19968;-80
2022/10/13 17:53:34;;;;;;;;;;;15.50;99.90;;;;;;5034537;28;19909;-80
2022/10/13 17:56:00;;;;;;;;;;;15.50;99.90;;;;;;5035152;28;20419;-80
2022/10/13 17:58:25;;;;;;;;;;;15.40;99.90;;;;;;5036023;28;19909;-80
2022/10/13 18:00:51;;;;;;;;;;;15.50;99.90;;;;;;5035363;28;20012;-80
2022/10/13 18:03:16;;;;;;;;;;;15.40;99.90;;;;;;5035580;28;20560;-79
2022/10/13 18:05:41;;;;;;;;;;;15.40;99.90;;;;;;5034172;28;19979;-80
2022/10/13 18:08:07;;;;;;;;;;;15.50;99.90;;;;;;5034074;28;19913;-80
2022/10/13 18:10:33;;;;;;;;;;;15.50;99.90;;;;;;5035073;28;19917;-81
2022/10/13 18:12:59;;;;;;;;;;;15.40;99.90;;;;;;5034948;28;20274;-80
2022/10/13 18:15:24;;;;;;;;;;;15.40;99.90;;;;;;5034930;28;19960;-80
2022/10/13 18:17:50;;;;;;;;;;;15.40;99.90;;;;;;5016637;28;19917;-81
2022/10/13 18:20:15;;;;;;;;;;;15.40;99.90;;;;;;5034356;28;19913;-80
2022/10/13 18:22:41;;;;;;;;;;;15.40;99.90;;;;;;5033059;28;19920;-80
2022/10/13 18:25:06;;;;;;;;;;;15.40;99.90;;;;;;5034250;28;19909;-81
2022/10/13 18:27:32;;;;;;;;;;;15.40;99.90;;;;;;5034503;28;19941;-82
2022/10/13 18:29:58;;;;;;;;;;;15.40;99.90;;;;;;5048956;28;20392;-81
2022/10/13 18:32:23;;;;;;;;;;;15.40;99.90;;;;;;5035494;28;19975;-86
2022/10/13 18:34:49;;;;;;;;;;;15.40;99.90;;;;;;5053013;28;19913;-87
2022/10/13 18:37:15;;;;;;;;;;;15.40;99.90;;;;;;5093609;22;19925;-80
2022/10/13 18:39:40;;;;;;;;;;;15.50;99.90;;;;;;5084092;28;19920;-80
2022/10/13 18:42:06;;;;;;;;;;;15.40;99.90;;;;;;5075908;28;19916;-79
2022/10/13 18:44:32;;;;;;;;;;;15.40;99.90;;;;;;5075877;28;19959;-79
2022/10/13 18:46:57;;;;;;;;;;;15.50;99.90;;;;;;5075981;28;19953;-80
2022/10/13 18:49:29;;;;;;;;;;;15.40;99.90;;;;;;5076732;28;19961;-80
2022/10/13 18:51:55;;;;;;;;;;;15.40;99.90;;;;;;5036301;28;19916;-80
2022/10/13 18:54:21;;;;;;;;;;;15.40;99.90;;;;;;5054164;28;19908;-80
2022/10/13 18:56:46;;;;;;;;;;;15.40;99.90;;;;;;5056329;28;19998;-79
2022/10/13 18:59:12;;;;;;;;;;;15.40;99.90;;;;;;5041677;28;19990;-79
2022/10/13 19:01:37;;;;;;;;;;;15.40;99.90;;;;;;5076933;28;19912;-80
2022/10/13 19:04:03;;;;;;;;;;;15.40;99.90;;;;;;5076592;28;19909;-80
2022/10/13 19:06:31;;;;;;;;;;;15.40;99.90;;;;;;5058499;28;19908;-79
2022/10/13 19:08:59;;;;;;;;;;;15.30;99.90;;;;;;5058835;28;20335;-79
2022/10/13 19:11:25;;;;;;;;;;;15.30;99.90;;;;;;5076766;28;19915;-79
2022/10/13 19:13:50;;;;;;;;;;;15.30;99.90;;;;;;5058809;28;20046;-79
2022/10/13 19:16:17;;;;;;;;;;;15.20;99.90;;;;;;5076687;28;19916;-79
2022/10/13 19:18:43;;;;;;;;;;;15.20;99.90;;;;;;5076499;28;19991;-79
2022/10/13 19:21:08;;;;;;;;;;;15.10;99.90;;;;;;5058753;28;19999;-79
2022/10/13 19:23:34;;;;;;;;;;;15.00;99.90;;;;;;5058236;28;19908;-80
2022/10/13 19:26:07;;;;;;;;;;;15.10;99.90;;;;;;5077178;28;19997;-80
2022/10/13 19:28:32;;;;;;;;;;;15.10;99.90;;;;;;5059370;28;19965;-80
2022/10/13 19:31:06;;;;;;;;;;;15.10;99.90;;;;;;5078936;28;19965;-80
2022/10/13 19:33:31;;;;;;;;;;;15.10;99.90;;;;;;5078083;28;20010;-80
2022/10/13 19:35:57;;;;;;;;;;;15.10;99.90;;;;;;5078818;28;19951;-80
2022/10/13 19:38:22;;;;;;;;;;;15.10;99.90;;;;;;5060117;28;19912;-80
2022/10/13 19:40:48;;;;;;;;;;;15.00;99.90;;;;;;5078164;28;19971;-80
2022/10/13 19:43:17;;;;;;;;;;;15.00;99.90;;;;;;5059990;28;20358;-80
2022/10/13 19:45:45;;;;;;;;;;;15.00;99.90;;;;;;5059955;28;19916;-80
2022/10/13 19:48:11;;;;;;;;;;;14.90;99.90;;;;;;5077861;28;19909;-80
2022/10/13 19:50:37;;;;;;;;;;;14.90;99.90;;;;;;5059627;28;20384;-80
2022/10/13 19:53:02;;;;;;;;;;;14.90;99.90;;;;;;5059571;28;19912;-80
2022/10/13 19:55:28;;;;;;;;;;;14.90;99.90;;;;;;5059810;28;19951;-80
2022/10/13 19:57:53;;;;;;;;;;;14.90;99.90;;;;;;5077881;28;20389;-80
2022/10/13 20:00:19;;;;;;;;;;;14.90;99.90;;;;;;5059133;28;19916;-80
2022/10/13 20:02:44;;;;;;;;;;;14.90;99.90;;;;;;5059614;28;20350;-80
2022/10/13 20:05:10;;;;;;;;;;;14.80;99.90;;;;;;5077272;28;20012;-80
2022/10/13 20:07:35;;;;;;;;;;;14.80;99.90;;;;;;5059023;28;19913;-81
2022/10/13 20:10:00;;;;;;;;;;;14.80;99.90;;;;;;5076626;28;19978;-80
2022/10/13 20:12:26;;;;;;;;;;;14.80;99.90;;;;;;5076019;28;19915;-79
2022/10/13 20:14:52;;;;;;;;;;;14.80;99.90;;;;;;5075487;28;20004;-80
2022/10/13 20:17:18;;;;;;;;;;;14.80;99.90;;;;;;5057802;28;20006;-79
2022/10/13 20:19:43;;;;;;;;;;;14.70;99.90;;;;;;5076460;28;19955;-79
2022/10/13 20:22:08;;;;;;;;;;;14.70;99.90;;;;;;5058455;28;19908;-79
2022/10/13 20:24:34;;;;;;;;;;;14.60;99.90;;;;;;5076036;28;19975;-79
2022/10/13 20:26:59;;;;;;;;;;;14.50;99.90;;;;;;5075600;28;19991;-80
2022/10/13 20:29:25;;;;;;;;;;;14.40;99.90;;;;;;5057646;28;19966;-79
2022/10/13 20:31:50;;;;;;;;;;;14.50;99.90;;;;;;5057583;28;19915;-79
2022/10/13 20:34:16;;;;;;;;;;;14.40;99.90;;;;;;5075272;28;19966;-81
2022/10/13 20:36:41;;;;;;;;;;;14.40;99.90;;;;;;5075117;28;20270;-79
2022/10/13 20:39:07;;;;;;;;;;;14.30;99.90;;;;;;5075772;28;19915;-80
2022/10/13 20:41:33;;;;;;;;;;;14.30;99.90;;;;;;5057417;28;19908;-80
2022/10/13 20:43:59;;;;;;;;;;;14.30;99.90;;;;;;5057668;28;19916;-81
2022/10/13 20:46:24;;;;;;;;;;;14.30;99.90;;;;;;5057882;28;19915;-80
2022/10/13 20:48:51;;;;;;;;;;;14.40;99.90;;;;;;5057258;28;19908;-80
2022/10/13 20:51:19;;;;;;;;;;;14.30;99.90;;;;;;5057491;28;20438;-80
2022/10/13 20:53:45;;;;;;;;;;;14.40;99.90;;;;;;5075263;28;19912;-80
2022/10/13 20:56:16;;;;;;;;;;;14.40;99.90;;;;;;5056759;28;20335;-81
2022/10/13 20:58:42;;;;;;;;;;;14.50;99.90;;;;;;5074680;28;19909;-80
2022/10/13 21:01:08;;;;;;;;;;;14.50;99.90;;;;;;5074443;28;19919;-80
2022/10/13 21:03:34;;;;;;;;;;;14.60;99.90;;;;;;5056343;28;20329;-80
2022/10/13 21:06:00;;;;;;;;;;;14.60;99.90;;;;;;5056401;28;20073;-81
2022/10/13 21:08:26;;;;;;;;;;;14.60;99.90;;;;;;5056572;28;19918;-80
2022/10/13 21:10:51;;;;;;;;;;;14.70;99.90;;;;;;5056564;28;19912;-80
2022/10/13 21:13:17;;;;;;;;;;;14.80;99.90;;;;;;5056703;28;19909;-80
2022/10/13 21:15:43;;;;;;;;;;;14.90;99.90;;;;;;5055907;28;19909;-80
2022/10/13 21:18:09;;;;;;;;;;;14.90;99.90;;;;;;5055692;28;19966;-81
2022/10/13 21:20:35;;;;;;;;;;;14.90;99.90;;;;;;5056011;28;19959;-81
2022/10/13 21:23:02;;;;;;;;;;;15.00;99.90;;;;;;5073595;28;19908;-81
2022/10/13 21:25:27;;;;;;;;;;;15.00;99.90;;;;;;5056095;28;20392;-81
2022/10/13 21:27:53;;;;;;;;;;;15.00;99.90;;;;;;5073896;28;19909;-81
2022/10/13 21:30:18;;;;;;;;;;;15.10;99.90;;;;;;5057347;28;19970;-80
2022/10/13 21:32:44;;;;;;;;;;;15.10;99.90;;;;;;5056839;28;19908;-80
2022/10/13 21:35:10;;;;;;;;;;;15.10;99.90;;;;;;5073821;28;19908;-80
2022/10/13 21:37:36;;;;;;;;;;;15.00;99.90;;;;;;5073636;28;19920;-80
2022/10/13 21:40:01;;;;;;;;;;;15.00;99.90;;;;;;5073789;28;20286;-81
2022/10/13 21:42:31;;;;;;;;;;;15.00;99.90;;;;;;5055491;28;19938;-80
2022/10/13 21:44:56;;;;;;;;;;;14.90;99.90;;;;;;5055359;28;20263;-80
2022/10/13 21:47:22;;;;;;;;;;;14.90;99.90;;;;;;5055522;28;19915;-80
2022/10/13 21:49:48;;;;;;;;;;;14.80;99.90;;;;;;5056014;28;19908;-81
2022/10/13 21:52:13;;;;;;;;;;;14.80;99.90;;;;;;5055277;28;19908;-81
2022/10/13 21:54:39;;;;;;;;;;;14.80;99.90;;;;;;5055644;28;20077;-80
2022/10/13 21:57:05;;;;;;;;;;;14.80;99.90;;;;;;5073414;28;19908;-80
2022/10/13 21:59:31;;;;;;;;;;;14.80;99.90;;;;;;5073564;28;19959;-80
2022/10/13 22:01:56;;;;;;;;;;;14.90;99.90;;;;;;5073139;28;19909;-80
2022/10/13 22:04:21;;;;;;;;;;;14.90;99.90;;;;;;5055220;28;19915;-80
2022/10/13 22:06:47;;;;;;;;;;;14.90;99.90;;;;;;5072999;28;19915;-80
2022/10/13 22:09:13;;;;;;;;;;;14.90;99.90;;;;;;5055157;28;19909;-80
2022/10/13 22:11:38;;;;;;;;;;;14.90;99.90;;;;;;5073612;28;19909;-80
2022/10/13 22:14:05;;;;;;;;;;;14.90;99.90;;;;;;5054900;28;20358;-80
2022/10/13 22:16:32;;;;;;;;;;;15.00;99.90;;;;;;5054760;28;19915;-80
2022/10/13 22:18:58;;;;;;;;;;;15.00;99.90;;;;;;5054861;28;19908;-80
2022/10/13 22:21:25;;;;;;;;;;;14.90;99.90;;;;;;5054750;28;19913;-80
2022/10/13 22:23:54;;;;;;;;;;;14.90;99.90;;;;;;5054527;28;19909;-80
2022/10/13 22:26:19;;;;;;;;;;;14.90;99.90;;;;;;5055039;28;19920;-80
2022/10/13 22:28:46;;;;;;;;;;;14.80;99.90;;;;;;5072981;28;19913;-80
2022/10/13 22:31:12;;;;;;;;;;;14.80;99.90;;;;;;5054157;28;20366;-80
2022/10/13 22:33:38;;;;;;;;;;;14.70;99.90;;;;;;5054674;28;19908;-79
2022/10/13 22:36:07;;;;;;;;;;;14.60;99.90;;;;;;5072695;28;19931;-81
2022/10/13 22:38:33;;;;;;;;;;;14.60;99.90;;;;;;5055117;28;19912;-81
2022/10/13 22:41:06;;;;;;;;;;;14.60;99.90;;;;;;5054841;28;19920;-81
2022/10/13 22:43:31;;;;;;;;;;;14.60;99.90;;;;;;5054888;28;19912;-81
2022/10/13 22:45:57;;;;;;;;;;;14.70;99.90;;;;;;5055015;28;19908;-80
2022/10/13 22:48:23;;;;;;;;;;;14.60;99.90;;;;;;5055322;28;19915;-80
2022/10/13 22:50:48;;;;;;;;;;;14.70;99.90;;;;;;5073399;28;19909;-80
2022/10/13 22:53:14;;;;;;;;;;;14.70;99.90;;;;;;5054786;28;19909;-80
2022/10/13 22:55:39;;;;;;;;;;;14.70;99.90;;;;;;5073227;28;19909;-81
2022/10/13 22:58:05;;;;;;;;;;;14.60;99.90;;;;;;5054634;28;19912;-79
2022/10/13 23:00:31;;;;;;;;;;;14.70;99.90;;;;;;5072710;28;20328;-80
2022/10/13 23:02:56;;;;;;;;;;;14.70;99.90;;;;;;5054270;28;20416;-80
2022/10/13 23:05:22;;;;;;;;;;;14.70;99.90;;;;;;5072669;28;19915;-80
2022/10/13 23:07:47;;;;;;;;;;;14.80;99.90;;;;;;5054720;28;19912;-80
2022/10/13 23:10:12;;;;;;;;;;;14.70;99.90;;;;;;5054855;28;20373;-80
2022/10/13 23:12:38;;;;;;;;;;;14.80;99.90;;;;;;5054430;28;19998;-80
2022/10/13 23:15:04;;;;;;;;;;;14.80;99.90;;;;;;5072001;28;19909;-79
2022/10/13 23:17:29;;;;;;;;;;;14.80;99.90;;;;;;5054550;28;19999;-80
2022/10/13 23:19:54;;;;;;;;;;;14.80;99.90;;;;;;5072177;28;19950;-80
2022/10/13 23:22:20;;;;;;;;;;;14.80;99.90;;;;;;5054443;28;20273;-80
2022/10/13 23:24:45;;;;;;;;;;;14.80;99.90;;;;;;5054335;28;19908;-80
2022/10/13 23:27:11;;;;;;;;;;;14.80;99.90;;;;;;5072159;28;19951;-80
2022/10/13 23:29:36;;;;;;;;;;;14.80;99.90;;;;;;5054322;28;20328;-80
2022/10/13 23:32:02;;;;;;;;;;;14.80;99.90;;;;;;5054306;28;19915;-80